createdAt,value
2023-01-22T00:02:37.964Z,21.80
2023-01-22T00:07:44.458Z,20.30
2023-01-22T00:12:50.539Z,20.40
2023-01-22T00:17:56.903Z,20.20
2023-01-22T00:23:03.678Z,47.90
2023-01-22T00:28:10.155Z,20.10
2023-01-22T00:33:16.352Z,21.30
2023-01-22T00:38:22.738Z,18.20
2023-01-22T00:43:29.285Z,17.80
2023-01-22T00:48:35.558Z,16.70
2023-01-22T00:53:42.760Z,16.40
2023-01-22T00:58:49.387Z,17.20
2023-01-22T01:03:55.461Z,15.60
2023-01-22T01:09:01.960Z,15.30
2023-01-22T01:14:08.331Z,15.40
2023-01-22T01:19:14.185Z,17.60
2023-01-22T01:24:20.284Z,16.40
2023-01-22T01:29:26.966Z,16.10
2023-01-22T01:34:33.309Z,17.80
2023-01-22T01:39:39.459Z,15.90
2023-01-22T01:44:45.550Z,16.10
2023-01-22T01:49:53.570Z,17.90
2023-01-22T01:55:00.280Z,17.80
2023-01-22T02:00:10.602Z,16.00
2023-01-22T02:05:21.361Z,16.60
2023-01-22T02:10:27.557Z,17.60
2023-01-22T02:15:36.139Z,18.00
2023-01-22T02:20:54.220Z,15.70
2023-01-22T02:26:00.620Z,14.30
2023-01-22T02:31:06.825Z,15.90
2023-01-22T02:36:13.426Z,15.00
2023-01-22T02:41:19.786Z,14.80
2023-01-22T02:46:30.390Z,13.10
2023-01-22T02:51:36.420Z,15.80
2023-01-22T02:56:42.860Z,14.80
2023-01-22T03:01:49.307Z,14.10
2023-01-22T03:06:55.306Z,13.90
2023-01-22T03:12:02.256Z,14.90
2023-01-22T03:17:29.704Z,16.70
2023-01-22T03:22:38.480Z,19.30
2023-01-22T03:28:04.176Z,17.10
2023-01-22T03:33:13.214Z,17.50
2023-01-22T03:38:19.653Z,18.80
2023-01-22T03:43:25.789Z,17.10
2023-01-22T03:48:32.229Z,16.10
2023-01-22T03:53:38.865Z,19.20
2023-01-22T03:58:45.111Z,17.50
2023-01-22T04:03:54.059Z,17.20
2023-01-22T04:09:02.562Z,14.90
2023-01-22T04:14:16.718Z,17.10
2023-01-22T04:19:32.057Z,15.60
2023-01-22T04:24:58.775Z,14.30
2023-01-22T04:30:06.709Z,16.30
2023-01-22T04:35:13.336Z,14.80
2023-01-22T04:40:28.103Z,15.60
2023-01-22T04:45:34.528Z,15.00
2023-01-22T04:50:40.613Z,14.70
2023-01-22T04:55:46.887Z,15.10
2023-01-22T05:00:55.248Z,14.10
2023-01-22T05:06:06.067Z,17.10
2023-01-22T05:11:14.332Z,14.30
2023-01-22T05:16:31.101Z,13.90
2023-01-22T05:21:36.905Z,12.80
2023-01-22T05:26:44.843Z,13.80
2023-01-22T05:31:59.381Z,14.10
2023-01-22T05:37:20.989Z,12.20
2023-01-22T05:42:27.575Z,13.10
2023-01-22T05:47:33.602Z,12.70
2023-01-22T05:52:53.660Z,12.90
2023-01-22T05:58:00.365Z,12.40
2023-01-22T06:03:06.841Z,11.70
2023-01-22T06:08:21.251Z,13.70
2023-01-22T06:13:30.349Z,11.40
2023-01-22T06:18:39.041Z,11.40
2023-01-22T06:23:45.549Z,13.40
2023-01-22T06:28:55.607Z,12.10
2023-01-22T06:34:03.663Z,12.40
2023-01-22T06:39:10.829Z,11.30
2023-01-22T06:44:37.188Z,12.60
2023-01-22T06:49:43.416Z,11.70
2023-01-22T06:54:51.105Z,12.20
2023-01-22T06:59:57.612Z,12.00
2023-01-22T07:05:03.776Z,12.70
2023-01-22T07:10:11.026Z,12.80
2023-01-22T07:15:16.874Z,12.10
2023-01-22T07:20:24.514Z,12.50
2023-01-22T07:25:30.223Z,12.80
2023-01-22T07:30:36.241Z,13.90
2023-01-22T07:35:42.959Z,14.20
2023-01-22T07:40:49.437Z,13.90
2023-01-22T07:45:58.010Z,12.20
2023-01-22T07:51:06.325Z,13.20
2023-01-22T07:56:13.898Z,13.40
2023-01-22T08:01:20.456Z,13.60
2023-01-22T08:06:26.222Z,12.90
2023-01-22T08:11:32.438Z,13.50
2023-01-22T08:16:39.152Z,15.80
2023-01-22T08:21:45.869Z,17.40
2023-01-22T08:26:51.832Z,16.40
2023-01-22T08:31:57.796Z,16.70
2023-01-22T08:37:04.117Z,15.70
2023-01-22T08:42:10.541Z,16.00
2023-01-22T08:47:18.696Z,14.60
2023-01-22T08:52:25.206Z,16.00
2023-01-22T08:57:31.916Z,17.40
2023-01-22T09:02:38.979Z,17.70
2023-01-22T09:07:45.508Z,15.90
2023-01-22T09:12:52.233Z,18.70
2023-01-22T09:18:01.292Z,26.50
2023-01-22T09:23:15.708Z,20.00
2023-01-22T09:28:40.981Z,18.10
2023-01-22T09:33:47.107Z,16.10
2023-01-22T09:38:52.902Z,14.90
2023-01-22T09:44:04.778Z,15.10
2023-01-22T09:49:16.502Z,15.30
2023-01-22T09:54:23.594Z,14.60
2023-01-22T09:59:35.829Z,14.90
2023-01-22T10:04:44.944Z,14.30
2023-01-22T10:09:54.711Z,13.90
2023-01-22T10:15:00.580Z,14.40
2023-01-22T10:20:12.671Z,16.40
2023-01-22T10:25:19.032Z,14.90
2023-01-22T10:30:27.051Z,15.30
2023-01-22T10:35:42.420Z,15.90
2023-01-22T10:40:54.718Z,16.40
2023-01-22T10:46:06.013Z,17.40
2023-01-22T10:51:16.837Z,17.50
2023-01-22T10:56:32.364Z,19.30
2023-01-22T11:01:39.920Z,19.80
2023-01-22T11:06:50.936Z,20.70
2023-01-22T11:12:04.351Z,20.40
2023-01-22T11:17:19.473Z,18.80
2023-01-22T11:22:33.449Z,20.40
2023-01-22T11:27:51.667Z,19.20
2023-01-22T11:33:07.233Z,20.20
2023-01-22T11:38:25.030Z,20.80
2023-01-22T11:43:55.670Z,20.80
2023-01-22T11:49:13.817Z,18.50
2023-01-22T11:54:33.029Z,20.90
2023-01-22T11:59:51.753Z,19.00
2023-01-22T12:05:21.755Z,21.40
2023-01-22T12:10:54.120Z,22.50
2023-01-22T12:16:15.432Z,21.00
2023-01-22T12:21:35.260Z,20.70
2023-01-22T12:26:48.022Z,21.60
2023-01-22T12:31:59.288Z,17.90
2023-01-22T12:37:07.995Z,19.70
2023-01-22T12:42:24.798Z,20.90
2023-01-22T12:47:40.670Z,19.10
2023-01-22T12:52:57.431Z,19.40
2023-01-22T12:58:07.653Z,19.70
2023-01-22T13:03:32.427Z,17.60
2023-01-22T13:08:42.305Z,19.20
2023-01-22T13:13:53.066Z,19.50
2023-01-22T13:19:00.973Z,19.80
2023-01-22T13:24:15.145Z,20.30
2023-01-22T13:29:26.130Z,25.70
2023-01-22T13:34:33.542Z,23.10
2023-01-22T13:39:39.900Z,22.50
2023-01-22T13:44:49.118Z,24.10
2023-01-22T13:49:55.276Z,20.70
2023-01-22T13:55:07.711Z,20.70
2023-01-22T14:00:26.940Z,21.30
2023-01-22T14:05:35.273Z,20.40
2023-01-22T14:10:42.096Z,21.10
2023-01-22T14:15:57.396Z,19.30
2023-01-22T14:21:04.095Z,19.30
2023-01-22T14:26:10.733Z,19.60
2023-01-22T14:31:16.620Z,20.40
2023-01-22T14:36:22.324Z,20.20
2023-01-22T14:41:28.311Z,35.00
2023-01-22T14:46:34.023Z,23.50
2023-01-22T14:51:39.888Z,22.90
2023-01-22T14:56:45.668Z,18.90
2023-01-22T15:01:51.660Z,20.10
2023-01-22T15:06:57.503Z,22.40
2023-01-22T15:12:03.859Z,20.60
2023-01-22T15:17:09.616Z,21.70
2023-01-22T15:22:15.695Z,23.00
2023-01-22T15:27:22.500Z,23.90
2023-01-22T15:32:28.631Z,23.50
2023-01-22T15:37:34.612Z,25.90
2023-01-22T15:42:40.373Z,25.10
2023-01-22T15:47:46.096Z,27.00
2023-01-22T15:52:57.714Z,24.30
2023-01-22T15:58:03.630Z,30.70
2023-01-22T16:03:09.483Z,28.90
2023-01-22T16:08:15.787Z,26.20
2023-01-22T16:13:21.959Z,23.80
2023-01-22T16:18:27.800Z,23.60
2023-01-22T16:23:35.201Z,29.50
2023-01-22T16:28:41.532Z,23.10
2023-01-22T16:33:51.781Z,22.00
2023-01-22T16:38:57.759Z,20.50
2023-01-22T16:44:09.752Z,49.20
2023-01-22T16:49:17.852Z,30.40
2023-01-22T16:54:30.227Z,22.70
2023-01-22T16:59:37.468Z,26.80
2023-01-22T17:04:43.317Z,24.20
2023-01-22T17:09:50.198Z,25.10
2023-01-22T17:14:56.357Z,22.20
2023-01-22T17:20:02.039Z,23.50
2023-01-22T17:25:09.526Z,23.90
2023-01-22T17:30:16.857Z,25.10
2023-01-22T17:35:22.756Z,29.10
2023-01-22T17:40:29.453Z,24.50
2023-01-22T17:45:38.453Z,29.10
2023-01-22T17:50:44.608Z,27.00
2023-01-22T17:55:50.615Z,23.80
2023-01-22T18:01:00.872Z,24.10
2023-01-22T18:06:08.327Z,22.80
2023-01-22T18:11:15.711Z,24.70
2023-01-22T18:16:21.768Z,24.90
2023-01-22T18:21:28.999Z,27.20
2023-01-22T18:26:35.818Z,22.90
2023-01-22T18:31:42.117Z,23.70
2023-01-22T18:36:48.139Z,21.80
2023-01-22T18:41:54.255Z,24.00
2023-01-22T18:47:02.059Z,24.40
2023-01-22T18:52:07.866Z,25.10
2023-01-22T18:57:13.435Z,24.20
2023-01-22T19:02:21.801Z,23.40
2023-01-22T19:07:27.749Z,22.20
2023-01-22T19:12:34.030Z,23.40
2023-01-22T19:17:40.069Z,21.80
2023-01-22T19:22:46.030Z,20.40
2023-01-22T19:27:51.763Z,20.50
2023-01-22T19:32:58.177Z,20.20
2023-01-22T19:38:03.958Z,17.90
2023-01-22T19:43:09.886Z,19.70
2023-01-22T19:48:15.709Z,19.60
2023-01-22T19:53:21.559Z,20.50
2023-01-22T19:58:28.494Z,17.80
2023-01-22T20:03:34.501Z,17.80
2023-01-22T20:08:40.671Z,19.20
2023-01-22T20:13:47.568Z,19.50
2023-01-22T20:18:54.183Z,17.40
2023-01-22T20:23:59.982Z,17.00
2023-01-22T20:29:06.794Z,19.80
2023-01-22T20:34:12.672Z,18.40
2023-01-22T20:39:19.684Z,17.40
2023-01-22T20:44:25.932Z,17.40
2023-01-22T20:49:33.543Z,20.60
2023-01-22T20:54:50.066Z,19.40
2023-01-22T21:00:08.620Z,16.40
2023-01-22T21:05:15.058Z,18.00
2023-01-22T21:10:21.616Z,17.70
2023-01-22T21:15:27.745Z,17.00
2023-01-22T21:20:34.338Z,15.90
2023-01-22T21:25:41.128Z,14.50
2023-01-22T21:30:46.922Z,17.40
2023-01-22T21:35:52.711Z,17.00
2023-01-22T21:41:07.309Z,16.90
2023-01-22T21:46:25.478Z,15.30
2023-01-22T21:51:33.436Z,17.50
2023-01-22T21:56:40.313Z,17.40
2023-01-22T22:01:47.381Z,15.90
2023-01-22T22:06:57.704Z,16.70
2023-01-22T22:12:05.497Z,16.80
2023-01-22T22:17:11.378Z,26.50
2023-01-22T22:22:17.162Z,18.50
2023-01-22T22:27:22.897Z,18.40
2023-01-22T22:32:29.202Z,18.80
2023-01-22T22:37:35.229Z,19.00
2023-01-22T22:42:41.095Z,17.40
2023-01-22T22:47:46.824Z,18.10
2023-01-22T22:52:52.784Z,17.50
2023-01-22T22:57:58.836Z,17.50
2023-01-22T23:03:04.920Z,16.70
2023-01-22T23:08:11.055Z,19.00
2023-01-22T23:13:16.783Z,19.40
2023-01-22T23:18:26.868Z,19.30
2023-01-22T23:23:33.341Z,18.00
2023-01-22T23:28:39.249Z,18.80
2023-01-22T23:33:45.520Z,18.10
2023-01-22T23:38:51.956Z,21.10
2023-01-22T23:43:57.776Z,17.90
2023-01-22T23:49:04.921Z,16.90
2023-01-22T23:54:11.156Z,20.40
2023-01-22T23:59:16.976Z,18.50
